X  Κλείσε Στοιχεία αεροπορικών μετεωρολογικών δεδομένων METAR     LGRX Patras Araxos Agamemnon Airport
Θερμοκρασία
17°C Θερμοκρασία
6°C Σημείο δρόσου
49% Υγρασία



Άνεμος
26 KM/H
16 MPH
7 M/S
14 KTS



90°
Α
Τρέχουσες Συνθήκες

Κυρίως Διάσπαρτα Νέφη Κυρίως Διάσπαρτα Νέφη
Πίεση 1018.92 (hPa) - 30.09 (inHg)
Ορατότητα 6.2 (μίλια) - 10 (km)
Aεροδρόμιο
Κωδικός Αεροδρομίου LGRX

Τοποθεσία: Patras Araxos Agamemnon Airport
Απόσταση: 108 (km)

Metar:
LGRX 190420Z 09014KT 9999 SCT035 BKN070 17/06 Q1019

ώρα: 19-05-2022 07:20 EEST